Time;durP1;ratioP1;P1;durP2;ratioP2;P2;SDS_P1;SDS_P2;PMS_P1;PMS_P2;Temp;Humidity;BMP_temperature;BMP_pressure;BME280_temperature;BME280_humidity;BME280_pressure;Samples;Min_cycle;Max_cycle;Signal;HPM_P1;HPM_P2
2022/01/13 17:57:31;;;;;;;25.57;14.90;;;;;;;0.64;78.44;100587.94;1760153;80;20958;-69
2022/01/13 17:59:58;;;;;;;27.48;16.85;;;;;;;0.66;78.49;100571.48;1768959;79;21084;-70
2022/01/13 18:02:24;;;;;;;26.95;15.38;;;;;;;0.69;78.51;100560.08;1725120;83;20996;-69
2022/01/13 18:04:51;;;;;;;29.92;17.92;;;;;;;0.73;78.60;100557.07;1780355;79;20963;-69
2022/01/13 18:07:19;;;;;;;32.42;18.70;;;;;;;0.75;78.61;100563.73;1729675;81;21069;-69
2022/01/13 18:09:46;;;;;;;33.80;21.20;;;;;;;0.78;78.61;100566.48;1502573;80;9999724;-70
2022/01/13 18:12:19;;;;;;;26.25;16.42;;;;;;;0.84;78.57;100570.98;1693738;84;21486;-70
2022/01/13 18:14:47;;;;;;;31.65;19.25;;;;;;;0.86;78.62;100573.73;1732634;81;21240;-72
2022/01/13 18:17:13;;;;;;;28.60;17.70;;;;;;;0.93;78.61;100586.92;1726689;81;21156;-72
2022/01/13 18:19:41;;;;;;;28.50;17.55;;;;;;;0.99;78.62;100586.64;1727442;81;21046;-68
2022/01/13 18:22:07;;;;;;;30.65;19.12;;;;;;;1.01;78.61;100578.87;1721392;83;21067;-72
2022/01/13 18:24:36;;;;;;;25.97;16.25;;;;;;;1.03;78.59;100574.23;1722568;83;21085;-70
2022/01/13 18:27:03;;;;;;;30.17;17.73;;;;;;;1.07;78.62;100572.84;1732716;82;21540;-69
2022/01/13 18:29:32;;;;;;;29.25;17.15;;;;;;;1.12;78.62;100570.45;1758655;81;21800;-71
2022/01/13 18:32:00;;;;;;;29.55;18.45;;;;;;;1.12;78.62;100570.45;1762541;81;21496;-71
2022/01/13 18:34:27;;;;;;;25.75;15.23;;;;;;;1.13;78.67;100569.44;1761729;80;21053;-71
2022/01/13 18:36:53;;;;;;;22.87;13.80;;;;;;;1.17;78.77;100569.34;1759193;81;21073;-69
2022/01/13 18:39:21;;;;;;;22.13;13.72;;;;;;;1.21;78.83;100563.70;1761101;81;21080;-69
2022/01/13 18:41:50;;;;;;;22.85;13.95;;;;;;;1.25;78.84;100554.41;1764506;79;21972;-69
2022/01/13 18:44:19;;;;;;;20.72;13.18;;;;;;;1.27;78.83;100555.84;1762071;79;21045;-69
2022/01/13 18:46:49;;;;;;;18.92;11.75;;;;;;;1.29;78.90;100547.77;1769490;79;21060;-69
2022/01/13 18:49:17;;;;;;;18.65;12.30;;;;;;;1.33;78.94;100543.72;1758393;81;20985;-70
2022/01/13 18:51:44;;;;;;;20.50;13.43;;;;;;;1.34;78.97;100546.14;1762115;80;21080;-73
2022/01/13 18:54:12;;;;;;;19.73;13.43;;;;;;;1.37;78.95;100535.23;1764385;79;21489;-70
2022/01/13 18:56:40;;;;;;;20.17;13.35;;;;;;;1.38;79.00;100531.61;1766605;79;21006;-70
2022/01/13 18:59:07;;;;;;;19.27;10.80;;;;;;;1.42;78.98;100527.27;1762353;81;21128;-69
2022/01/13 19:01:33;;;;;;;17.55;10.98;;;;;;;1.45;79.01;100527.69;1762522;80;20943;-69
2022/01/13 19:03:59;;;;;;;15.25;9.75;;;;;;;1.45;79.08;100530.80;1756146;81;21631;-70
2022/01/13 19:06:26;;;;;;;20.40;11.57;;;;;;;1.51;79.08;100514.22;1758552;79;21112;-70
2022/01/13 19:08:52;;;;;;;17.98;10.43;;;;;;;1.55;79.08;100517.59;1762646;79;21306;-69
2022/01/13 19:11:20;;;;;;;16.25;9.95;;;;;;;1.57;79.03;100497.63;1767759;79;21053;-69
2022/01/13 19:13:47;;;;;;;15.75;10.55;;;;;;;1.60;79.10;100497.23;1768001;80;21021;-70
2022/01/13 19:16:13;;;;;;;17.42;10.75;;;;;;;1.61;79.12;100489.63;1762652;81;21026;-69
2022/01/13 19:18:42;;;;;;;15.70;9.50;;;;;;;1.63;79.12;100472.63;1759567;79;21511;-69
2022/01/13 19:21:09;;;;;;;15.00;9.88;;;;;;;1.66;79.18;100475.89;1766415;79;21017;-68
2022/01/13 19:23:38;;;;;;;16.00;9.93;;;;;;;1.68;79.20;100473.84;1765402;79;21045;-69
2022/01/13 19:26:05;;;;;;;14.95;9.70;;;;;;;1.70;79.23;100466.57;1780213;79;21230;-69
2022/01/13 19:28:32;;;;;;;14.83;9.98;;;;;;;1.71;79.25;100460.28;1762414;79;21602;-69
2022/01/13 19:30:59;;;;;;;15.23;9.90;;;;;;;1.71;79.26;100467.70;1763006;79;21788;-71
2022/01/13 19:33:25;;;;;;;13.35;8.65;;;;;;;1.74;79.27;100458.56;1757023;79;21539;-72
2022/01/13 19:35:52;;;;;;;13.00;8.88;;;;;;;1.75;79.33;100453.12;1763478;79;22196;-72
2022/01/13 19:38:22;;;;;;;12.65;8.50;;;;;;;1.80;79.35;100451.19;1762286;79;21132;-70
2022/01/13 19:40:52;;;;;;;13.90;8.38;;;;;;;1.82;79.38;100461.83;1756665;79;21029;-73
2022/01/13 19:43:18;;;;;;;12.05;8.00;;;;;;;1.83;79.40;100449.47;1766581;79;21150;-71
2022/01/13 19:45:45;;;;;;;12.47;7.62;;;;;;;1.88;79.40;100451.80;1776132;79;21077;-73
2022/01/13 19:48:11;;;;;;;13.03;8.68;;;;;;;1.94;79.39;100454.63;1756082;81;21316;-71
2022/01/13 19:50:38;;;;;;;11.93;8.18;;;;;;;1.97;79.33;100445.81;1759857;79;21724;-72
2022/01/13 19:53:13;;;;;;;13.45;9.23;;;;;;;2.03;79.30;100450.27;1759241;79;21595;-70
2022/01/13 19:55:33;;;;;;;13.38;9.30;;;;;;;2.05;79.27;100447.45;1764712;79;21311;-72
2022/01/13 19:58:00;;;;;;;14.35;9.20;;;;;;;2.09;79.20;100452.09;1761534;79;21021;-70
2022/01/13 20:00:29;;;;;;;14.87;9.85;;;;;;;2.15;79.12;100448.36;1745899;79;21057;-70
2022/01/13 20:02:56;;;;;;;13.28;8.63;;;;;;;2.18;79.06;100446.13;1760716;79;21041;-70
2022/01/13 20:05:23;;;;;;;10.48;7.65;;;;;;;2.23;78.99;100448.13;1766222;79;21068;-72
2022/01/13 20:07:52;;;;;;;13.20;7.97;;;;;;;2.26;78.95;100449.84;1762963;79;22380;-70
2022/01/13 20:10:21;;;;;;;14.68;8.73;;;;;;;2.29;78.83;100450.76;1763112;79;21049;-70
2022/01/13 20:12:52;;;;;;;11.43;7.92;;;;;;;2.33;78.79;100440.10;1762444;79;21030;-71
2022/01/13 20:15:16;;;;;;;10.78;7.30;;;;;;;2.34;78.70;100429.88;1763129;79;21524;-72
2022/01/13 20:17:43;;;;;;;9.18;6.50;;;;;;;2.41;78.64;100433.82;1751129;79;21504;-73
2022/01/13 20:20:11;;;;;;;9.10;6.42;;;;;;;2.46;78.56;100427.92;1763387;79;21926;-71
2022/01/13 20:22:39;;;;;;;8.78;6.42;;;;;;;2.49;78.51;100424.88;1763040;79;21024;-70
2022/01/13 20:25:07;;;;;;;8.75;6.58;;;;;;;2.52;78.42;100426.59;1762957;79;21514;-68
2022/01/13 20:27:36;;;;;;;8.40;6.12;;;;;;;2.58;78.34;100423.13;1750325;79;21053;-71
2022/01/13 20:30:07;;;;;;;9.15;5.42;;;;;;;2.63;78.21;100419.85;1749226;79;21104;-73
2022/01/13 20:32:34;;;;;;;8.88;5.58;;;;;;;2.67;78.09;100414.48;1767497;79;21129;-70
2022/01/13 20:35:01;;;;;;;8.00;5.55;;;;;;;2.67;77.93;100401.30;1763108;79;21068;-70
2022/01/13 20:37:29;;;;;;;8.65;5.90;;;;;;;2.72;77.89;100389.60;1763365;79;21061;-69
2022/01/13 20:39:55;;;;;;;7.05;5.12;;;;;;;2.76;77.76;100388.67;1762220;79;21070;-71
2022/01/13 20:42:24;;;;;;;8.28;5.28;;;;;;;2.77;77.67;100386.36;1768082;79;21952;-73
2022/01/13 20:44:51;;;;;;;8.15;5.30;;;;;;;2.81;77.60;100395.45;1766079;79;21954;-74
2022/01/13 20:47:17;;;;;;;8.15;5.45;;;;;;;2.84;77.49;100391.59;1768356;79;21190;-72
2022/01/13 20:49:44;;;;;;;7.90;4.90;;;;;;;2.88;77.41;100384.88;1762651;79;21057;-73
2022/01/13 20:52:10;;;;;;;7.87;4.65;;;;;;;2.88;77.27;100386.20;1763575;79;21112;-71
2022/01/13 20:54:39;;;;;;;7.30;5.00;;;;;;;2.89;77.25;100375.42;1778505;79;21101;-72
2022/01/13 20:57:06;;;;;;;7.67;5.25;;;;;;;2.90;77.18;100370.98;1763079;79;21669;-68
2022/01/13 20:59:33;;;;;;;7.78;4.72;;;;;;;2.92;77.08;100364.97;1766431;79;21143;-70
2022/01/13 21:01:59;;;;;;;7.35;5.05;;;;;;;2.93;77.04;100358.66;1768066;79;21104;-70
2022/01/13 21:04:25;;;;;;;6.92;5.08;;;;;;;2.96;76.97;100361.71;1761016;80;21025;-71
2022/01/13 21:06:55;;;;;;;5.95;4.20;;;;;;;2.98;76.93;100362.80;1757286;79;21060;-70
2022/01/13 21:09:21;;;;;;;7.58;5.05;;;;;;;2.98;76.83;100364.92;1762631;79;21085;-70
2022/01/13 21:11:49;;;;;;;7.10;4.67;;;;;;;3.02;76.80;100362.67;1761897;79;21089;-72
2022/01/13 21:14:16;;;;;;;7.33;4.62;;;;;;;3.05;76.72;100359.09;1760144;79;21053;-73
2022/01/13 21:16:44;;;;;;;6.33;4.05;;;;;;;3.10;76.69;100361.63;1766962;79;21116;-70
2022/01/13 21:19:11;;;;;;;7.80;4.65;;;;;;;3.16;76.59;100351.52;1764591;79;21040;-69
2022/01/13 21:21:38;;;;;;;7.70;4.33;;;;;;;3.18;76.42;100337.61;1781762;79;21540;-70
2022/01/13 21:24:05;;;;;;;7.05;4.70;;;;;;;3.21;76.32;100341.14;1765436;80;21029;-71
2022/01/13 21:26:32;;;;;;;7.10;4.60;;;;;;;3.23;76.24;100339.91;1766776;79;21073;-72
2022/01/13 21:29:00;;;;;;;7.00;4.55;;;;;;;3.21;76.17;100337.99;1760858;79;21132;-70
2022/01/13 21:31:26;;;;;;;6.08;4.28;;;;;;;3.24;76.12;100336.77;1759221;79;21077;-70
2022/01/13 21:33:57;;;;;;;6.78;4.42;;;;;;;3.26;76.06;100336.85;1761333;79;21934;-71
2022/01/13 21:36:21;;;;;;;5.75;3.90;;;;;;;3.29;75.99;100344.83;1757971;79;21083;-69
2022/01/13 21:38:50;;;;;;;5.65;3.67;;;;;;;3.30;75.96;100345.15;1762781;79;21048;-70
2022/01/13 21:41:16;;;;;;;5.40;3.72;;;;;;;3.32;75.85;100328.56;1761961;81;21124;-70
2022/01/13 21:43:42;;;;;;;5.45;3.55;;;;;;;3.32;75.79;100321.97;1764512;81;21417;-70
2022/01/13 21:46:11;;;;;;;5.95;3.50;;;;;;;3.37;75.68;100319.50;1764671;81;21530;-70
2022/01/13 21:48:38;;;;;;;6.17;3.30;;;;;;;3.38;75.64;100309.75;1763211;79;21050;-70
2022/01/13 21:51:05;;;;;;;5.58;3.40;;;;;;;3.41;75.57;100304.04;1763366;81;21037;-69
2022/01/13 21:53:31;;;;;;;5.25;3.22;;;;;;;3.41;75.49;100306.68;1763700;81;20998;-70
2022/01/13 21:55:58;;;;;;;5.45;3.40;;;;;;;3.43;75.44;100297.53;1763254;81;21541;-69
2022/01/13 21:58:24;;;;;;;6.62;3.72;;;;;;;3.43;75.38;100303.33;1764382;79;21483;-71
2022/01/13 22:00:51;;;;;;;5.20;2.90;;;;;;;3.42;75.34;100287.16;1764934;81;20979;-71
2022/01/13 22:03:19;;;;;;;5.45;3.00;;;;;;;3.44;75.32;100272.73;1765461;81;21451;-70
2022/01/13 22:05:45;;;;;;;4.85;3.20;;;;;;;3.43;75.30;100260.56;1765039;79;21474;-70
2022/01/13 22:08:26;;;;;;;5.10;3.12;;;;;;;3.46;75.27;100260.13;1764317;81;20978;-71
2022/01/13 22:10:42;;;;;;;4.95;3.60;;;;;;;3.44;75.25;100258.20;1759843;79;21138;-71
2022/01/13 22:13:10;;;;;;;5.08;3.20;;;;;;;3.43;75.32;100243.40;1765020;81;21553;-71
2022/01/13 22:15:37;;;;;;;5.33;3.67;;;;;;;3.47;75.27;100250.37;1764548;81;21785;-71
2022/01/13 22:18:03;;;;;;;5.22;3.20;;;;;;;3.45;75.26;100229.45;1765172;81;20958;-71
2022/01/13 22:20:31;;;;;;;5.33;2.95;;;;;;;3.44;75.29;100225.20;1766292;79;20998;-71
2022/01/13 22:22:58;;;;;;;5.17;3.33;;;;;;;3.49;75.31;100219.29;1765022;79;21539;-71
2022/01/13 22:25:25;;;;;;;4.45;2.77;;;;;;;3.46;75.34;100211.28;1763483;80;21046;-70
2022/01/13 22:27:52;;;;;;;5.03;3.05;;;;;;;3.42;75.50;100217.20;1763231;79;21106;-70
2022/01/13 22:30:18;;;;;;;4.20;3.00;;;;;;;3.48;75.36;100213.17;1763483;80;21074;-69
2022/01/13 22:32:45;;;;;;;4.12;2.45;;;;;;;3.48;75.34;100207.89;1760288;79;21083;-69
2022/01/13 22:35:11;;;;;;;4.35;2.67;;;;;;;3.51;75.34;100226.46;1764639;81;21117;-69
2022/01/13 22:37:39;;;;;;;3.65;2.35;;;;;;;3.51;75.35;100207.98;1764753;81;21556;-69
2022/01/13 22:40:08;;;;;;;3.83;2.40;;;;;;;3.48;75.42;100188.09;1764741;81;21116;-69
2022/01/13 22:42:35;;;;;;;4.05;2.30;;;;;;;3.48;75.46;100193.37;1765606;79;21533;-69
2022/01/13 22:45:05;;;;;;;4.72;2.50;;;;;;;3.47;75.62;100193.61;1764777;79;20982;-70
2022/01/13 22:47:31;;;;;;;4.20;2.70;;;;;;;3.48;75.59;100184.13;1764172;79;21131;-69
2022/01/13 22:50:01;;;;;;;4.25;2.47;;;;;;;3.47;75.66;100169.33;1764777;81;21065;-70
2022/01/13 22:52:28;;;;;;;4.17;2.45;;;;;;;3.48;75.74;100176.73;1764978;79;20978;-70
2022/01/13 22:54:54;;;;;;;4.42;2.55;;;;;;;3.49;75.77;100163.84;1765374;79;20959;-70
2022/01/13 22:57:21;;;;;;;4.28;2.72;;;;;;;3.48;75.79;100147.17;1764969;81;21022;-71
2022/01/13 22:59:47;;;;;;;5.05;2.70;;;;;;;3.49;75.77;100150.64;1764881;80;21248;-70
2022/01/13 23:02:13;;;;;;;4.58;2.98;;;;;;;3.51;75.75;100157.80;1771009;79;20974;-70
2022/01/13 23:04:40;;;;;;;4.05;2.72;;;;;;;3.48;75.92;100149.00;1795238;79;20990;-70
2022/01/13 23:07:07;;;;;;;4.25;2.60;;;;;;;3.48;75.91;100131.84;1795317;79;21030;-70
2022/01/13 23:09:33;;;;;;;4.08;2.60;;;;;;;3.47;75.95;100127.08;1796663;79;21081;-70
2022/01/13 23:12:02;;;;;;;5.25;3.20;;;;;;;3.43;76.10;100129.88;1795847;79;21151;-69
2022/01/13 23:22:13;;;;;;;5.83;3.33;;;;;;;3.45;76.11;100115.92;1796509;79;20978;-70
2022/01/13 23:22:54;;;;;;;3.93;2.57;;;;;;;3.46;76.14;100089.84;1639650;79;10000558;-69
2022/01/13 23:25:25;;;;;;;4.72;2.62;;;;;;;3.49;76.26;100101.27;1765261;79;21686;-71
2022/01/13 23:27:48;;;;;;;4.87;3.02;;;;;;;3.53;76.22;100101.63;1765290;80;21100;-73
2022/01/13 23:30:17;;;;;;;4.53;2.87;;;;;;;3.49;76.30;100106.55;1759178;79;21664;-72
2022/01/13 23:32:45;;;;;;;4.67;2.92;;;;;;;3.53;76.22;100115.64;1763053;79;21075;-70
2022/01/13 23:35:13;;;;;;;4.50;2.70;;;;;;;3.57;76.13;100118.64;1761244;79;21021;-70
2022/01/13 23:37:40;;;;;;;5.65;2.67;;;;;;;3.58;76.04;100133.45;1769391;79;21160;-71
2022/01/13 23:40:09;;;;;;;4.58;2.40;;;;;;;3.59;76.04;100121.87;1759094;79;21088;-71
2022/01/13 23:42:41;;;;;;;4.37;2.90;;;;;;;3.60;75.97;100119.52;1763249;79;21033;-70
2022/01/13 23:45:09;;;;;;;4.37;2.55;;;;;;;3.63;75.90;100109.03;1759483;79;21521;-72
2022/01/13 23:47:38;;;;;;;4.72;2.60;;;;;;;3.63;75.87;100116.44;1761727;79;21105;-70
2022/01/13 23:50:05;;;;;;;3.85;2.30;;;;;;;3.63;75.90;100100.59;1758017;79;21222;-70
2022/01/13 23:52:34;;;;;;;4.53;2.65;;;;;;;3.67;75.78;100107.56;1762952;79;21086;-70
2022/01/13 23:55:04;;;;;;;4.10;2.67;;;;;;;3.70;75.69;100100.51;1762088;81;20982;-70
2022/01/13 23:57:34;;;;;;;4.97;2.72;;;;;;;3.67;75.69;100126.84;1757146;81;21056;-70
